createdAt,value
2018-03-26T00:01:10.765Z,94206.70
2018-03-26T00:03:39.144Z,94175.22
2018-03-26T00:06:07.558Z,94197.94
2018-03-26T00:08:35.961Z,94164.89
2018-03-26T00:11:04.324Z,94196.72
2018-03-26T00:13:32.788Z,94205.52
2018-03-26T00:16:01.152Z,94201.42
2018-03-26T00:18:29.562Z,94208.23
2018-03-26T00:20:57.956Z,94209.45
2018-03-26T00:23:26.314Z,94210.60
2018-03-26T00:25:54.709Z,94205.69
2018-03-26T00:28:23.081Z,94206.44
2018-03-26T00:30:51.490Z,94211.23
2018-03-26T00:33:19.865Z,94205.16
2018-03-26T00:35:48.269Z,94203.47
2018-03-26T00:38:16.872Z,94202.28
2018-03-26T00:40:45.224Z,94206.41
2018-03-26T00:43:13.626Z,94178.57
2018-03-26T00:45:42.010Z,94214.94
2018-03-26T00:48:10.400Z,94212.20
2018-03-26T00:50:38.781Z,94211.38
2018-03-26T00:53:07.141Z,94198.18
2018-03-26T00:55:35.568Z,94193.70
2018-03-26T00:58:03.963Z,94199.93
2018-03-26T01:00:32.315Z,94194.30
2018-03-26T01:03:01.675Z,94189.97
2018-03-26T01:05:30.118Z,94193.25
2018-03-26T01:07:58.508Z,94181.47
2018-03-26T01:10:26.864Z,94182.30
2018-03-26T01:12:55.346Z,94171.20
2018-03-26T01:15:23.724Z,94150.04
2018-03-26T01:17:52.070Z,94150.81
2018-03-26T01:20:20.464Z,94173.10
2018-03-26T01:22:48.837Z,94157.48
2018-03-26T01:25:17.272Z,94161.16
2018-03-26T01:27:45.648Z,94148.96
2018-03-26T01:30:14.073Z,94145.48
2018-03-26T01:32:42.481Z,94141.22
2018-03-26T01:35:10.846Z,94137.66
2018-03-26T01:37:39.192Z,94153.71
2018-03-26T01:40:07.626Z,94151.29
2018-03-26T01:42:36.070Z,94160.65
2018-03-26T01:45:04.545Z,94149.90
2018-03-26T01:47:32.926Z,94141.95
2018-03-26T01:50:01.333Z,94127.02
2018-03-26T01:52:29.711Z,94140.79
2018-03-26T01:54:58.189Z,94140.75
2018-03-26T01:57:26.565Z,94139.67
2018-03-26T01:59:54.978Z,94138.15
2018-03-26T02:02:23.372Z,94130.94
2018-03-26T02:04:51.782Z,94129.59
2018-03-26T02:07:20.185Z,94125.48
2018-03-26T02:09:48.590Z,94125.52
2018-03-26T02:12:17.005Z,94127.30
2018-03-26T02:14:45.496Z,94119.77
2018-03-26T02:17:13.856Z,94113.25
2018-03-26T02:19:42.426Z,94104.56
2018-03-26T02:22:10.824Z,94087.44
2018-03-26T02:24:39.228Z,94101.32
2018-03-26T02:27:07.581Z,94105.98
2018-03-26T02:29:35.993Z,94095.23
2018-03-26T02:32:04.371Z,94108.27
2018-03-26T02:34:32.887Z,94097.12
2018-03-26T02:37:01.405Z,94108.39
2018-03-26T02:39:29.797Z,94107.27
2018-03-26T02:41:58.228Z,94111.53
2018-03-26T02:44:26.657Z,94089.19
2018-03-26T02:46:55.061Z,94049.96
2018-03-26T02:49:23.466Z,94113.42
2018-03-26T02:51:51.889Z,94109.95
2018-03-26T02:54:20.280Z,94113.19
2018-03-26T02:56:48.660Z,94092.70
2018-03-26T02:59:17.064Z,94115.87
2018-03-26T03:01:45.577Z,94116.36
2018-03-26T03:04:14.094Z,94111.17
2018-03-26T03:06:42.484Z,94118.38
2018-03-26T03:09:10.837Z,94119.56
2018-03-26T03:11:39.232Z,94128.30
2018-03-26T03:14:07.637Z,94118.41
2018-03-26T03:16:36.047Z,94104.36
2018-03-26T03:19:04.475Z,94121.53
2018-03-26T03:21:32.892Z,94135.81
2018-03-26T03:24:01.243Z,94100.30
2018-03-26T03:26:29.652Z,94140.25
2018-03-26T03:28:58.063Z,94155.13
2018-03-26T03:31:26.457Z,94157.57
2018-03-26T03:33:54.828Z,94155.77
2018-03-26T03:36:23.324Z,94156.16
2018-03-26T03:38:51.750Z,94150.55
2018-03-26T03:41:20.154Z,94151.83
2018-03-26T03:43:48.535Z,94153.41
2018-03-26T03:46:16.908Z,94152.74
2018-03-26T03:48:45.312Z,94137.31
2018-03-26T03:51:13.673Z,94142.36
2018-03-26T03:53:42.055Z,94140.88
2018-03-26T03:56:10.456Z,94142.43
2018-03-26T03:58:38.851Z,94156.41
2018-03-26T04:01:07.371Z,94139.28
2018-03-26T04:03:35.756Z,94125.75
2018-03-26T04:06:04.178Z,94119.09
2018-03-26T04:08:32.561Z,94128.53
2018-03-26T04:11:00.949Z,94121.47
2018-03-26T04:13:29.348Z,94124.45
2018-03-26T04:15:57.738Z,94123.30
2018-03-26T04:18:26.150Z,94118.69
2018-03-26T04:20:54.488Z,94124.33
2018-03-26T04:23:23.384Z,94130.71
2018-03-26T04:25:51.758Z,94121.98
2018-03-26T04:28:20.163Z,94117.59
2018-03-26T04:30:48.533Z,94123.14
2018-03-26T04:33:16.956Z,94124.96
2018-03-26T04:35:45.312Z,94119.60
2018-03-26T04:38:13.717Z,94127.34
2018-03-26T04:40:42.077Z,94122.02
2018-03-26T04:43:10.620Z,94121.22
2018-03-26T04:45:39.033Z,94121.12
2018-03-26T04:48:07.550Z,94131.63
2018-03-26T04:50:35.965Z,94139.86
2018-03-26T04:53:04.322Z,94140.08
2018-03-26T04:55:32.731Z,94158.68
2018-03-26T04:58:01.156Z,94148.86
2018-03-26T05:00:29.599Z,94147.20
2018-03-26T05:02:58.001Z,94149.55
2018-03-26T05:05:26.497Z,94145.47
2018-03-26T05:07:56.975Z,94146.61
2018-03-26T05:10:25.351Z,94140.30
2018-03-26T05:12:53.833Z,94127.00
2018-03-26T05:15:22.192Z,94151.80
2018-03-26T05:17:50.565Z,94162.95
2018-03-26T05:20:18.993Z,94146.06
2018-03-26T05:22:47.422Z,94156.31
2018-03-26T05:25:15.822Z,94153.09
2018-03-26T05:27:44.187Z,94150.80
2018-03-26T05:30:12.707Z,94152.95
2018-03-26T05:32:41.078Z,94148.09
2018-03-26T05:35:09.457Z,94146.08
2018-03-26T05:37:37.860Z,94145.44
2018-03-26T05:40:06.292Z,94131.20
2018-03-26T05:42:34.905Z,94138.33
2018-03-26T05:45:03.300Z,94141.88
2018-03-26T05:47:31.700Z,94122.58
2018-03-26T05:50:00.065Z,94148.87
2018-03-26T05:52:28.464Z,94111.39
2018-03-26T05:54:56.893Z,94132.37
2018-03-26T05:57:25.276Z,94093.17
2018-03-26T05:59:53.723Z,94132.28
2018-03-26T06:02:22.148Z,94133.85
2018-03-26T06:04:50.541Z,94132.02
2018-03-26T06:07:18.994Z,94137.17
2018-03-26T06:09:47.380Z,94140.78
2018-03-26T06:12:15.854Z,94134.67
2018-03-26T06:14:44.241Z,94137.83
2018-03-26T06:17:13.335Z,94136.87
2018-03-26T06:19:41.915Z,94139.68
2018-03-26T06:22:10.351Z,94111.59
2018-03-26T06:24:38.857Z,94132.23
2018-03-26T06:27:07.296Z,94125.13
2018-03-26T06:29:35.712Z,94135.22
2018-03-26T06:32:04.204Z,94122.95
2018-03-26T06:34:32.641Z,94116.60
2018-03-26T06:37:03.573Z,94125.30
2018-03-26T06:39:32.012Z,94138.80
2018-03-26T06:42:00.426Z,94113.47
2018-03-26T06:44:28.844Z,94111.26
2018-03-26T06:46:57.237Z,94112.72
2018-03-26T06:49:25.673Z,94100.34
2018-03-26T06:51:54.133Z,94103.24
2018-03-26T06:54:22.680Z,94105.76
2018-03-26T06:56:51.120Z,94103.11
2018-03-26T06:59:19.518Z,94099.83
2018-03-26T07:01:47.921Z,94108.19
2018-03-26T07:04:16.342Z,94103.72
2018-03-26T07:06:44.750Z,94107.11
2018-03-26T07:09:13.288Z,94118.22
2018-03-26T07:11:41.683Z,94116.64
2018-03-26T07:14:10.093Z,94110.69
2018-03-26T07:16:38.473Z,94087.03
2018-03-26T07:19:06.930Z,94106.09
2018-03-26T07:21:35.325Z,94105.33
2018-03-26T07:24:03.755Z,94103.09
2018-03-26T07:26:32.211Z,94098.44
2018-03-26T07:29:00.585Z,94109.30
2018-03-26T07:31:28.986Z,94105.94
2018-03-26T07:33:57.405Z,94112.55
2018-03-26T07:36:25.777Z,94109.25
2018-03-26T07:38:54.184Z,94105.08
2018-03-26T07:41:22.620Z,94103.38
2018-03-26T07:43:51.133Z,94106.56
2018-03-26T07:46:19.551Z,94110.53
2018-03-26T07:48:47.936Z,94104.09
2018-03-26T07:51:16.366Z,94101.70
2018-03-26T07:53:44.803Z,94098.70
2018-03-26T07:56:13.190Z,94102.70
2018-03-26T07:58:41.609Z,94096.35
2018-03-26T08:01:10.077Z,94106.08
2018-03-26T08:03:38.486Z,94098.16
2018-03-26T08:06:06.942Z,94100.90
2018-03-26T08:08:35.397Z,94101.56
2018-03-26T08:11:03.773Z,94101.14
2018-03-26T08:13:32.498Z,94095.96
2018-03-26T08:16:00.888Z,94097.09
2018-03-26T08:18:29.268Z,94105.88
2018-03-26T08:20:57.752Z,94097.54
2018-03-26T08:23:26.144Z,94100.14
2018-03-26T08:25:54.533Z,94105.05
2018-03-26T08:28:23.226Z,94108.45
2018-03-26T08:30:51.636Z,94110.34
2018-03-26T08:33:20.053Z,94095.58
2018-03-26T08:35:48.486Z,94092.58
2018-03-26T08:38:16.930Z,94089.41
2018-03-26T08:40:45.320Z,94083.34
2018-03-26T08:43:13.905Z,94085.77
2018-03-26T08:45:42.302Z,94086.80
2018-03-26T08:48:10.726Z,94086.13
2018-03-26T08:50:39.557Z,94082.00
2018-03-26T08:53:07.969Z,94029.90
2018-03-26T08:55:36.394Z,94075.52
2018-03-26T08:58:04.828Z,94071.16
2018-03-26T09:00:33.212Z,94077.85
2018-03-26T09:03:01.610Z,94075.62
2018-03-26T09:05:30.055Z,94069.97
2018-03-26T09:07:58.424Z,94063.46
2018-03-26T09:10:26.841Z,94059.12
2018-03-26T09:12:55.702Z,94061.03
2018-03-26T09:15:24.114Z,94066.56
2018-03-26T09:17:52.526Z,94061.70
2018-03-26T09:20:20.975Z,94060.14
2018-03-26T09:22:49.366Z,94046.97
2018-03-26T09:25:17.833Z,94074.39
2018-03-26T09:27:46.231Z,94068.16
2018-03-26T09:30:14.691Z,94068.36
2018-03-26T09:32:43.167Z,94067.37
2018-03-26T09:35:11.571Z,94062.66
2018-03-26T09:37:40.033Z,94061.92
2018-03-26T09:40:08.486Z,94070.05
2018-03-26T09:42:36.881Z,94071.92
2018-03-26T09:45:05.293Z,94047.20
2018-03-26T09:47:33.727Z,94068.19
2018-03-26T09:50:02.221Z,94081.53
2018-03-26T09:52:30.657Z,94076.63
2018-03-26T09:54:59.092Z,94069.67
2018-03-26T09:57:27.578Z,94077.33
2018-03-26T09:59:56.001Z,94070.90
2018-03-26T10:02:24.397Z,94078.87
2018-03-26T10:04:52.837Z,94079.13
2018-03-26T10:07:21.224Z,94081.16
2018-03-26T10:09:49.825Z,94081.33
2018-03-26T10:12:18.324Z,94073.85
2018-03-26T10:14:46.780Z,94081.95
2018-03-26T10:17:15.224Z,94083.72
2018-03-26T10:19:43.635Z,94080.27
2018-03-26T10:22:11.998Z,94082.30
2018-03-26T10:24:40.434Z,94080.02
2018-03-26T10:27:08.832Z,94074.34
2018-03-26T10:29:37.284Z,94072.63
2018-03-26T10:32:05.716Z,94070.51
2018-03-26T10:34:34.112Z,94075.60
2018-03-26T10:37:02.531Z,94079.05
2018-03-26T10:39:30.965Z,94078.00
2018-03-26T10:41:59.358Z,94074.72
2018-03-26T10:44:27.813Z,94078.98
2018-03-26T10:46:56.217Z,94080.95
2018-03-26T10:49:25.584Z,94083.59
2018-03-26T10:51:54.030Z,94084.22
2018-03-26T10:54:22.490Z,94058.84
2018-03-26T10:56:50.893Z,94073.81
2018-03-26T10:59:19.360Z,94066.48
2018-03-26T11:01:47.778Z,94068.82
2018-03-26T11:04:16.257Z,94080.14
2018-03-26T11:06:44.891Z,94076.14
2018-03-26T11:09:13.322Z,94072.64
2018-03-26T11:11:41.793Z,94072.33
2018-03-26T11:14:10.236Z,94072.84
2018-03-26T11:16:38.650Z,94066.58
2018-03-26T11:19:07.052Z,94063.75
2018-03-26T11:21:35.478Z,94066.88
2018-03-26T11:24:03.994Z,94065.03
2018-03-26T11:26:32.450Z,94046.06
2018-03-26T11:29:00.929Z,94060.02
2018-03-26T11:31:29.393Z,94058.70
2018-03-26T11:33:57.860Z,94063.58
2018-03-26T11:36:26.349Z,94070.81
2018-03-26T11:38:54.881Z,94065.67
2018-03-26T11:41:23.336Z,94062.55
2018-03-26T11:43:51.855Z,94042.24
2018-03-26T11:46:20.353Z,94053.48
2018-03-26T11:48:48.911Z,94050.33
2018-03-26T11:51:17.382Z,94046.45
2018-03-26T11:53:45.852Z,94043.81
2018-03-26T11:56:14.306Z,94024.53
2018-03-26T11:58:42.748Z,94038.63
2018-03-26T12:01:11.237Z,94039.02
2018-03-26T12:03:39.748Z,94034.02
2018-03-26T12:06:08.230Z,94026.23
2018-03-26T12:08:36.662Z,94029.88
2018-03-26T12:11:05.187Z,94026.17
2018-03-26T12:13:33.709Z,94022.59
2018-03-26T12:16:02.173Z,94025.98
2018-03-26T12:18:30.592Z,94018.53
2018-03-26T12:21:01.773Z,94028.36
2018-03-26T12:23:42.116Z,94031.98
2018-03-26T12:26:10.635Z,94014.22
2018-03-26T12:28:50.922Z,94032.51
2018-03-26T12:31:19.372Z,94031.32
2018-03-26T12:33:59.684Z,94029.80
2018-03-26T12:36:28.210Z,94032.23
2018-03-26T12:38:56.661Z,94036.81
2018-03-26T12:41:25.099Z,94029.97
2018-03-26T12:43:53.576Z,94031.27
2018-03-26T12:46:33.807Z,94034.86
2018-03-26T12:49:02.288Z,94031.35
2018-03-26T12:51:42.598Z,94033.47
2018-03-26T12:54:11.094Z,94022.38
2018-03-26T12:56:39.524Z,94026.46
2018-03-26T12:59:08.025Z,94032.67
2018-03-26T13:01:48.360Z,94035.91
2018-03-26T13:04:16.816Z,94037.44
2018-03-26T13:06:45.336Z,94046.55
2018-03-26T13:09:13.793Z,94041.73
2018-03-26T13:11:42.249Z,94032.97
2018-03-26T13:14:10.676Z,94041.18
2018-03-26T13:16:39.156Z,94032.05
2018-03-26T13:19:07.599Z,94022.86
2018-03-26T13:21:36.030Z,94020.94
2018-03-26T13:24:04.478Z,94005.13
2018-03-26T13:26:33.008Z,94019.58
2018-03-26T13:29:01.425Z,94020.25
2018-03-26T13:31:29.898Z,94018.16
2018-03-26T13:33:58.368Z,94029.11
2018-03-26T13:36:26.838Z,94014.04
2018-03-26T13:38:55.292Z,94008.22
2018-03-26T13:41:23.720Z,94015.11
2018-03-26T13:43:52.199Z,94008.16
2018-03-26T13:46:20.694Z,94023.59
2018-03-26T13:48:49.263Z,94019.22
2018-03-26T13:51:17.739Z,94017.70
2018-03-26T13:53:46.233Z,94019.78
2018-03-26T13:56:14.714Z,94021.36
2018-03-26T13:58:43.186Z,93998.42
2018-03-26T14:01:11.657Z,94015.33
2018-03-26T14:03:40.140Z,94009.33
2018-03-26T14:06:08.578Z,94014.74
2018-03-26T14:08:48.925Z,94016.00
2018-03-26T14:11:29.352Z,94014.73
2018-03-26T14:14:09.558Z,94014.67
2018-03-26T14:16:50.063Z,94011.77
2018-03-26T14:19:18.516Z,94008.38
2018-03-26T14:21:47.010Z,94005.50
2018-03-26T14:24:15.449Z,94005.34
2018-03-26T14:26:44.185Z,94006.60
2018-03-26T14:29:12.678Z,94002.09
2018-03-26T14:31:41.150Z,94015.04
2018-03-26T14:34:09.640Z,94007.62
2018-03-26T14:36:38.199Z,94003.98
2018-03-26T14:39:06.675Z,94007.67
2018-03-26T14:41:35.180Z,93984.04
2018-03-26T14:44:03.708Z,94008.38
2018-03-26T14:46:32.226Z,94002.16
2018-03-26T14:49:00.669Z,94001.68
2018-03-26T14:51:29.149Z,93982.50
2018-03-26T14:53:57.629Z,93996.07
2018-03-26T14:56:26.062Z,93999.58
2018-03-26T14:58:54.555Z,93994.95
2018-03-26T15:01:22.983Z,93999.56
2018-03-26T15:03:57.205Z,94002.61
2018-03-26T15:06:25.682Z,93999.93
2018-03-26T15:08:54.175Z,93997.95
2018-03-26T15:11:22.633Z,94000.57
2018-03-26T15:13:51.119Z,94003.95
2018-03-26T15:16:19.588Z,93988.98
2018-03-26T15:18:48.095Z,93995.72
2018-03-26T15:21:16.598Z,94010.22
2018-03-26T15:23:45.079Z,93997.80
2018-03-26T15:26:13.578Z,94018.34
2018-03-26T15:28:42.041Z,94017.98
2018-03-26T15:31:10.541Z,94023.63
2018-03-26T15:33:39.028Z,94027.74
2018-03-26T15:36:07.511Z,94025.85
2018-03-26T15:38:36.057Z,94031.33
2018-03-26T15:41:04.571Z,94034.28
2018-03-26T15:43:33.026Z,94039.02
2018-03-26T15:46:01.467Z,94039.08
2018-03-26T15:48:30.563Z,94040.14
2018-03-26T15:50:59.459Z,94038.43
2018-03-26T15:53:28.257Z,94034.48
2018-03-26T15:55:57.138Z,94042.49
2018-03-26T15:58:25.744Z,94046.52
2018-03-26T16:00:54.368Z,94044.27
2018-03-26T16:03:37.458Z,94049.28
2018-03-26T16:06:05.965Z,94042.34
2018-03-26T16:08:34.456Z,94047.75
2018-03-26T16:11:02.990Z,94047.41
2018-03-26T16:13:31.432Z,94054.80
2018-03-26T16:15:59.919Z,94036.18
2018-03-26T16:18:28.394Z,94057.48
2018-03-26T16:20:56.900Z,94059.23
2018-03-26T16:23:25.352Z,94067.81
2018-03-26T16:25:53.849Z,94063.31
2018-03-26T16:28:22.356Z,94059.84
2018-03-26T16:30:50.869Z,94049.80
2018-03-26T16:33:19.485Z,94068.17
2018-03-26T16:35:47.969Z,94060.62
2018-03-26T16:38:16.458Z,94061.13
2018-03-26T16:40:45.157Z,94058.10
2018-03-26T16:43:15.534Z,94066.48
2018-03-26T16:45:49.224Z,94064.80
2018-03-26T16:48:18.248Z,94061.98
2018-03-26T16:50:47.624Z,94063.67
2018-03-26T16:53:16.944Z,94058.42
2018-03-26T16:55:45.982Z,94057.38
2018-03-26T16:58:16.997Z,94061.63
2018-03-26T17:00:46.653Z,94061.13
2018-03-26T17:03:15.980Z,94060.02
2018-03-26T17:05:44.661Z,94069.22
2018-03-26T17:08:13.111Z,94070.44
2018-03-26T17:10:42.597Z,94073.61
2018-03-26T17:13:11.357Z,94065.14
2018-03-26T17:15:40.151Z,94074.12
2018-03-26T17:18:08.850Z,94078.56
2018-03-26T17:20:37.430Z,94071.83
2018-03-26T17:23:05.965Z,94079.78
2018-03-26T17:25:34.378Z,94091.27
2018-03-26T17:28:02.845Z,94089.58
2018-03-26T17:30:31.267Z,94093.32
2018-03-26T17:33:00.067Z,94092.63
2018-03-26T17:35:28.576Z,94097.83
2018-03-26T17:37:57.028Z,94097.25
2018-03-26T17:40:25.521Z,94102.98
2018-03-26T17:42:54.065Z,94103.81
2018-03-26T17:45:22.520Z,94102.08
2018-03-26T17:47:51.042Z,94112.45
2018-03-26T17:50:19.550Z,94114.90
2018-03-26T17:52:47.998Z,94117.69
2018-03-26T17:55:16.533Z,94098.21
2018-03-26T17:57:44.975Z,94119.84
2018-03-26T18:00:13.437Z,94123.04
2018-03-26T18:02:41.957Z,94123.44
2018-03-26T18:05:10.487Z,94128.20
2018-03-26T18:07:38.983Z,94107.59
2018-03-26T18:10:07.560Z,94120.63
2018-03-26T18:12:36.037Z,94123.34
2018-03-26T18:15:04.555Z,94129.58
2018-03-26T18:17:33.063Z,94125.02
2018-03-26T18:20:01.647Z,94126.91
2018-03-26T18:22:30.169Z,94135.38
2018-03-26T18:24:58.620Z,94128.82
2018-03-26T18:27:27.092Z,94122.83
2018-03-26T18:29:55.548Z,94131.41
2018-03-26T18:32:24.017Z,94131.09
2018-03-26T18:34:52.477Z,94137.90
2018-03-26T18:37:20.945Z,94141.34
2018-03-26T18:39:49.400Z,94137.21
2018-03-26T18:42:17.829Z,94128.11
2018-03-26T18:44:46.292Z,94133.11
2018-03-26T18:47:14.797Z,94113.96
2018-03-26T18:49:43.252Z,94139.02
2018-03-26T18:52:11.725Z,94140.59
2018-03-26T18:54:40.193Z,94137.47
2018-03-26T18:57:08.733Z,94135.14
2018-03-26T18:59:37.209Z,94131.28
2018-03-26T19:02:05.674Z,94140.52
2018-03-26T19:04:34.124Z,94141.58
2018-03-26T19:07:02.583Z,94137.20
2018-03-26T19:09:31.061Z,94139.80
2018-03-26T19:11:59.550Z,94118.57
2018-03-26T19:14:28.028Z,94143.83
2018-03-26T19:16:56.456Z,94146.50
2018-03-26T19:19:24.895Z,94121.53
2018-03-26T19:21:53.372Z,94143.34
2018-03-26T19:24:21.803Z,94141.49
2018-03-26T19:26:50.242Z,94142.28
2018-03-26T19:29:18.735Z,94145.52
2018-03-26T19:31:47.184Z,94150.62
2018-03-26T19:34:16.826Z,94156.61
2018-03-26T19:36:45.438Z,94154.17
2018-03-26T19:39:13.976Z,94148.55
2018-03-26T19:41:42.413Z,94154.55
2018-03-26T19:44:10.860Z,94136.91
2018-03-26T19:46:39.345Z,94159.12
2018-03-26T19:49:07.797Z,94153.64
2018-03-26T19:51:36.270Z,94159.53
2018-03-26T19:54:04.970Z,94168.05
2018-03-26T19:56:33.549Z,94163.47
2018-03-26T19:59:02.074Z,94166.12
2018-03-26T20:01:30.519Z,94169.66
2018-03-26T20:03:58.978Z,94164.69
2018-03-26T20:06:27.457Z,94164.19
2018-03-26T20:08:55.889Z,94154.05
2018-03-26T20:11:24.321Z,94166.94
2018-03-26T20:13:52.786Z,94169.79
2018-03-26T20:16:21.265Z,94166.89
2018-03-26T20:18:49.728Z,94174.14
2018-03-26T20:21:18.166Z,94175.66
2018-03-26T20:23:46.644Z,94181.01
2018-03-26T20:26:15.067Z,94171.72
2018-03-26T20:28:43.528Z,94178.19
2018-03-26T20:31:11.989Z,94167.36
2018-03-26T20:33:40.460Z,94170.87
2018-03-26T20:36:08.979Z,94171.31
2018-03-26T20:38:37.456Z,94168.46
2018-03-26T20:41:05.914Z,94164.12
2018-03-26T20:43:34.373Z,94159.48
2018-03-26T20:46:02.952Z,94159.94
2018-03-26T20:48:31.436Z,94141.34
2018-03-26T20:50:59.877Z,94162.49
2018-03-26T20:53:28.374Z,94097.36
2018-03-26T20:55:56.815Z,94153.53
2018-03-26T20:58:25.322Z,94156.78
2018-03-26T21:00:53.806Z,94157.86
2018-03-26T21:03:22.245Z,94138.78
2018-03-26T21:05:50.901Z,94157.11
2018-03-26T21:08:19.384Z,94139.67
2018-03-26T21:10:47.822Z,94154.03
2018-03-26T21:13:16.289Z,94155.92
2018-03-26T21:15:44.750Z,94135.27
2018-03-26T21:18:13.180Z,94154.80
2018-03-26T21:20:41.697Z,94162.98
2018-03-26T21:23:10.160Z,94157.92
2018-03-26T21:25:38.657Z,94151.95
2018-03-26T21:28:07.082Z,94148.73
2018-03-26T21:30:35.596Z,94151.54
2018-03-26T21:33:04.079Z,94151.03
2018-03-26T21:35:32.589Z,94091.93
2018-03-26T21:38:01.049Z,94151.42
2018-03-26T21:40:29.537Z,94115.13
2018-03-26T21:42:58.049Z,94145.39
2018-03-26T21:45:26.541Z,94136.67
2018-03-26T21:47:54.989Z,94141.38
2018-03-26T21:50:23.441Z,94138.30
2018-03-26T21:52:51.937Z,94122.12
2018-03-26T21:55:20.443Z,94138.91
2018-03-26T21:57:48.940Z,94133.84
2018-03-26T22:00:21.075Z,94132.80
2018-03-26T22:02:49.588Z,94127.31
2018-03-26T22:05:18.024Z,94131.39
2018-03-26T22:07:46.517Z,94126.91
2018-03-26T22:10:14.916Z,94126.48
2018-03-26T22:12:43.439Z,94127.50
2018-03-26T22:15:11.900Z,94120.94
2018-03-26T22:17:40.433Z,94127.28
2018-03-26T22:20:08.996Z,94117.16
2018-03-26T22:22:37.403Z,94117.80
2018-03-26T22:25:05.882Z,94118.88
2018-03-26T22:27:34.340Z,94124.57
2018-03-26T22:30:02.870Z,94098.84
2018-03-26T22:32:31.338Z,94116.92
2018-03-26T22:34:59.812Z,94120.24
2018-03-26T22:37:28.310Z,94118.09
2018-03-26T22:39:57.104Z,94121.27
2018-03-26T22:42:25.611Z,94124.39
2018-03-26T22:44:54.069Z,94120.05
2018-03-26T22:47:22.537Z,94127.11
2018-03-26T22:49:51.036Z,94123.21
2018-03-26T22:52:19.512Z,94130.03
2018-03-26T22:54:47.950Z,94128.63
2018-03-26T22:57:16.439Z,94047.52
2018-03-26T22:59:44.887Z,94122.23
2018-03-26T23:02:13.544Z,94127.22
2018-03-26T23:04:42.194Z,94128.20
2018-03-26T23:07:10.686Z,94130.38
2018-03-26T23:09:39.114Z,94129.11
2018-03-26T23:12:07.620Z,94128.74
2018-03-26T23:14:36.094Z,94131.89
2018-03-26T23:17:04.562Z,94122.72
2018-03-26T23:19:33.048Z,94127.40
2018-03-26T23:24:36.302Z,94130.54
2018-03-26T23:27:04.785Z,94160.25
2018-03-26T23:29:33.260Z,94131.16
2018-03-26T23:32:01.660Z,94126.23
2018-03-26T23:34:30.077Z,94130.53
2018-03-26T23:36:58.542Z,94125.23
2018-03-26T23:39:26.948Z,94125.61
2018-03-26T23:41:55.455Z,94125.36
2018-03-26T23:44:24.057Z,94128.92
2018-03-26T23:46:52.481Z,94126.05
2018-03-26T23:49:20.987Z,94131.58
2018-03-26T23:51:49.477Z,94130.54
2018-03-26T23:54:17.924Z,94138.84
2018-03-26T23:56:46.401Z,94110.95
2018-03-26T23:59:14.892Z,94134.75
